»·PEaware :: N9875 KBUR-KLAS

N9875 :: KBUR-KLAS

FLIGHT INFORMATION

Flight Status: Arrived
Operator: Privately registered:
United States
More flights under this callsign
Pilot: Joe C. (22377)
Aircraft: PILATUS PC-12 EAGLE
(PC12)
More flights by this aircraft type
Origin: KBUR Bob Hope-Burbank
United States
Destination: KLAS McCarran Intl
United States
More flights between these airports :: More routes between these airports
Route: +VNY3 DAG CRESO4
File this flight plan on PilotEdge
Remarks: I-4
Altitude:
(Current/Filed)
250ft
Speed:
(Current/Filed)
240kts
Departed: 29-Dec-18 02:21 PM
Arrived: 29-Dec-18 03:47 PM
Distance/Time
Traveled:
194nm/1:26
Distance/Time
To Go:
Arrived

Flight Plot

Page will automatically refresh every two minutes.

Flight plan parsing failed; only flown route is shown


Map Options




Map Legend


Flown Route
Filed Route
Departure Airport
Arrival Airport
Navaid (VOR, NDB)
Fix

Horizontal Profiles

Position Reports

Time Latitude Longitude Heading Altitude Ground
Speed
29-Dec-18 14:07 34.200203 -118.358746 263 721ft 0kts
29-Dec-18 14:08 34.200203 -118.358746 263 721ft 0kts
29-Dec-18 14:09 34.200203 -118.358746 263 721ft 0kts
29-Dec-18 14:10 34.200203 -118.358746 263 721ft 0kts
29-Dec-18 14:11 34.200203 -118.358746 263 721ft 0kts
29-Dec-18 14:12 34.200203 -118.358746 263 721ft 0kts
29-Dec-18 14:13 34.200754 -118.359249 56 724ft 4kts
29-Dec-18 14:14 34.201844 -118.358724 346 727ft 16kts
29-Dec-18 14:15 34.206863 -118.360107 349 746ft 19kts
29-Dec-18 14:16 34.209606 -118.360664 77 760ft 0kts
29-Dec-18 14:17 34.209606 -118.360664 77 760ft 0kts
29-Dec-18 14:18 34.209606 -118.360664 77 760ft 0kts
29-Dec-18 14:19 34.209606 -118.360664 77 760ft 0kts
29-Dec-18 14:20 34.193044 -118.357116 198 1317ft 128kts
29-Dec-18 14:21 34.162679 -118.389846 224 3146ft 165kts
29-Dec-18 14:22 34.125101 -118.434854 226 3729ft 224kts
29-Dec-18 14:23 34.144172 -118.480757 350 4891ft 206kts
29-Dec-18 14:26 34.200203 -118.358746 263 721ft 0kts
29-Dec-18 14:27 34.200203 -118.358746 263 721ft 0kts
29-Dec-18 14:28 34.200203 -118.358746 263 721ft 0kts
29-Dec-18 14:29 34.200203 -118.358746 263 721ft 0kts
29-Dec-18 14:30 34.200203 -118.358746 263 721ft 0kts
29-Dec-18 14:31 34.200203 -118.358746 263 721ft 0kts
29-Dec-18 14:32 34.200203 -118.358746 263 721ft 0kts
29-Dec-18 14:33 34.200203 -118.358746 263 721ft 0kts
29-Dec-18 14:34 34.200203 -118.358746 263 721ft 0kts
29-Dec-18 14:35 34.200203 -118.358746 263 721ft 0kts
29-Dec-18 14:36 34.200203 -118.358746 263 721ft 0kts
29-Dec-18 14:37 34.200201 -118.358760 262 721ft 1kts
29-Dec-18 14:38 34.201487 -118.358621 346 725ft 15kts
29-Dec-18 14:39 34.206281 -118.359958 348 743ft 19kts
29-Dec-18 14:40 34.209620 -118.360648 80 760ft 0kts
29-Dec-18 14:41 34.209620 -118.360648 80 760ft 0kts
29-Dec-18 14:42 34.209620 -118.360648 80 760ft 0kts
29-Dec-18 14:43 34.209620 -118.360648 80 760ft 0kts
29-Dec-18 14:44 34.209314 -118.359654 163 758ft 29kts
29-Dec-18 14:45 34.180815 -118.365760 223 1991ft 146kts
29-Dec-18 14:46 34.149787 -118.403488 225 3675ft 179kts
29-Dec-18 14:47 34.109639 -118.453068 225 3725ft 214kts
29-Dec-18 14:48 34.068137 -118.504329 225 3725ft 214kts
29-Dec-18 14:49 34.026671 -118.555522 225 3725ft 214kts
29-Dec-18 14:50 34.042093 -118.598575 8 4707ft 196kts
29-Dec-18 14:51 34.094749 -118.586032 11 6494ft 195kts
29-Dec-18 14:52 34.146174 -118.567608 20 8277ft 196kts
29-Dec-18 14:53 34.197721 -118.544349 20 9716ft 214kts
29-Dec-18 14:54 34.259032 -118.516645 20 9726ft 251kts
29-Dec-18 14:55 34.325454 -118.486662 20 9725ft 258kts
29-Dec-18 14:56 34.387480 -118.452195 49 10627ft 231kts
29-Dec-18 14:57 34.424296 -118.395224 52 12564ft 204kts
29-Dec-18 14:58 34.457428 -118.342621 52 14543ft 193kts
29-Dec-18 14:59 34.489088 -118.292252 52 16528ft 186kts
29-Dec-18 15:00 34.520855 -118.241616 52 18351ft 196kts
29-Dec-18 15:01 34.554301 -118.188104 52 20152ft 202kts
29-Dec-18 15:02 34.588296 -118.133659 52 21943ft 205kts
29-Dec-18 15:03 34.621540 -118.080315 52 23852ft 192kts
29-Dec-18 15:04 34.636603 -118.019348 81 25006ft 219kts
29-Dec-18 15:05 34.645448 -117.937906 82 25002ft 262kts
29-Dec-18 15:06 34.655234 -117.847604 82 25000ft 276kts
29-Dec-18 15:07 34.666382 -117.755115 72 25005ft 280kts
29-Dec-18 15:08 34.689445 -117.665690 72 24999ft 281kts
29-Dec-18 15:09 34.712607 -117.575258 72 24999ft 281kts
29-Dec-18 15:10 34.735723 -117.484663 72 24999ft 281kts
29-Dec-18 15:11 34.758800 -117.393908 72 24999ft 281kts
29-Dec-18 15:12 34.781429 -117.304613 72 24999ft 281kts
29-Dec-18 15:13 34.804293 -117.213938 73 24818ft 277kts
29-Dec-18 15:14 34.825603 -117.129133 72 24405ft 246kts
29-Dec-18 15:15 34.844638 -117.053380 72 24387ft 225kts
29-Dec-18 15:16 34.862373 -116.982560 72 24378ft 215kts
29-Dec-18 15:17 34.879575 -116.913638 72 24318ft 213kts
29-Dec-18 15:18 34.896782 -116.844525 72 24219ft 217kts
29-Dec-18 15:19 34.915769 -116.768156 72 24142ft 248kts
29-Dec-18 15:21 34.936141 -116.685685 72 24025ft 260kts
29-Dec-18 15:22 34.956897 -116.601465 72 23999ft 261kts
29-Dec-18 15:23 34.987564 -116.522080 60 23999ft 260kts
29-Dec-18 15:24 35.022267 -116.444064 61 23411ft 278kts
29-Dec-18 15:25 35.059374 -116.360241 61 22216ft 281kts
29-Dec-18 15:26 35.095441 -116.278695 61 21038ft 277kts
29-Dec-18 15:27 35.130558 -116.199103 61 19877ft 275kts
29-Dec-18 15:28 35.166572 -116.117290 61 18681ft 274kts
29-Dec-18 15:29 35.202519 -116.035421 61 17480ft 273kts
29-Dec-18 15:30 35.238076 -115.954250 61 16282ft 271kts
29-Dec-18 15:31 35.273295 -115.873674 61 15085ft 270kts
29-Dec-18 15:32 35.309119 -115.791512 60 13891ft 277kts
29-Dec-18 15:33 35.360045 -115.721492 46 12703ft 277kts
29-Dec-18 15:34 35.411940 -115.652315 47 11500ft 275kts
29-Dec-18 15:35 35.463224 -115.583751 47 10302ft 273kts
29-Dec-18 15:36 35.512991 -115.517100 46 9686ft 254kts
29-Dec-18 15:37 35.567187 -115.462557 26 9291ft 257kts
29-Dec-18 15:38 35.630351 -115.423885 26 7797ft 254kts
29-Dec-18 15:39 35.691848 -115.389466 23 6693ft 241kts
29-Dec-18 15:40 35.751732 -115.356142 23 6686ft 233kts
29-Dec-18 15:41 35.811351 -115.320337 29 5764ft 251kts
29-Dec-18 15:42 35.873171 -115.287018 25 5356ft 246kts
29-Dec-18 15:43 35.935200 -115.250468 24 4687ft 241kts
29-Dec-18 15:44 35.991640 -115.218179 24 4278ft 219kts
29-Dec-18 15:45 36.043591 -115.188697 24 2960ft 175kts
29-Dec-18 15:46 36.072820 -115.171824 23 2300ft 97kts
29-Dec-18 15:46 36.085848 -115.164414 26 2140ft 38kts
29-Dec-18 15:47 36.087501 -115.158489 119 2117ft 1kts
29-Dec-18 15:49 36.087495 -115.158475 118 2117ft 0kts
29-Dec-18 15:49 36.087802 -115.157655 28 2113ft 14kts

Navigation Log

Ident Type
Flight plan parsing failed, navigation log unavailable